Terminal Aerodrome Forecast
Issued by NWS

Home | Current Version | Previous Version | Graphics & Text | Print | Product List | Glossary On
Versions: 1 2 3 4 5 6 7 8 9 10 11 12 13 14 15 16 17 18 19 20 21 22 23 24 25 26 27 28 29 30 31 32 33 34
000
FTUS43 KLOT 292140 AAC
TAFDPA
TAF AMD
KDPA 292140Z 2922/3018 22018G28KT P6SM SCT025 BKN035
     FM292345 24013G18KT 6SM -RA BKN025
     FM300030 28012G22KT P6SM BKN025
     FM300400 29008KT P6SM SKC=

USA.gov is the U.S. government's official web portal to all federal, state and local government web resources and services.